Time;durP1;ratioP1;P1;durP2;ratioP2;P2;SDS_P1;SDS_P2;PMS_P1;PMS_P2;Temp;Humidity;BMP_temperature;BMP_pressure;BME280_temperature;BME280_humidity;BME280_pressure;Samples;Min_cycle;Max_cycle;Signal;HPM_P1;HPM_P2
2022/12/08 00:00:50;;;;;;;36.73;27.67;;;3.80;99.90;;;;;;5057271;28;20935;-67
2022/12/08 00:03:17;;;;;;;33.10;25.90;;;3.80;99.90;;;;;;5056720;28;20557;-67
2022/12/08 00:11:17;;;;;;;30.70;24.60;;;3.80;99.90;;;;;;5056582;28;20441;-67
2022/12/08 00:13:44;;;;;;;36.50;25.90;;;3.80;99.90;;;;;;5056473;28;20472;-67
2022/12/08 00:16:11;;;;;;;29.97;23.83;;;3.80;99.90;;;;;;5057418;28;20462;-67
2022/12/08 00:18:38;;;;;;;37.07;26.97;;;3.70;99.90;;;;;;5057245;28;20466;-67
2022/12/08 00:21:06;;;;;;;29.50;22.90;;;3.70;99.90;;;;;;5057597;28;20752;-67
2022/12/08 00:23:34;;;;;;;32.83;24.03;;;3.80;99.90;;;;;;5057614;28;20552;-67
2022/12/08 00:26:03;;;;;;;30.57;25.43;;;3.70;99.90;;;;;;5056980;28;20790;-67
2022/12/08 00:28:31;;;;;;;27.53;22.43;;;3.70;99.90;;;;;;5056892;28;20753;-67
2022/12/08 00:30:58;;;;;;;29.63;22.47;;;3.70;99.90;;;;;;5056160;28;20464;-67
2022/12/08 00:33:27;;;;;;;27.63;22.83;;;3.70;99.90;;;;;;5055581;28;20929;-67
2022/12/08 00:35:54;;;;;;;34.60;23.93;;;3.70;99.90;;;;;;5055116;28;20462;-67
2022/12/08 00:38:21;;;;;;;24.90;21.67;;;3.80;99.90;;;;;;5055812;28;20470;-67
2022/12/08 00:40:50;;;;;;;32.40;23.37;;;3.70;99.90;;;;;;5056689;28;20493;-67
2022/12/08 00:43:17;;;;;;;34.10;24.07;;;3.80;99.90;;;;;;5056913;28;20437;-67
2022/12/08 00:45:44;;;;;;;32.10;24.03;;;3.80;99.90;;;;;;5057116;28;20760;-67
2022/12/08 00:48:11;;;;;;;32.20;24.90;;;3.70;99.90;;;;;;5056809;28;20854;-67
2022/12/08 00:50:38;;;;;;;28.80;24.57;;;3.70;99.90;;;;;;5056511;28;20465;-67
2022/12/08 00:53:05;;;;;;;29.30;24.57;;;3.80;99.90;;;;;;5056835;28;20433;-67
2022/12/08 00:55:32;;;;;;;33.30;23.77;;;3.80;99.90;;;;;;5056890;28;20462;-67
2022/12/08 00:58:01;;;;;;;30.90;23.70;;;3.70;99.90;;;;;;5057092;28;20752;-67
2022/12/08 01:00:28;;;;;;;31.77;23.53;;;3.70;99.90;;;;;;5056463;28;20490;-67
2022/12/08 01:02:55;;;;;;;29.87;23.50;;;3.70;99.90;;;;;;5056852;28;20466;-67
2022/12/08 01:05:22;;;;;;;28.50;22.53;;;3.70;99.90;;;;;;5056506;28;20462;-67
2022/12/08 01:07:49;;;;;;;34.93;26.73;;;3.70;99.90;;;;;;5057091;28;20569;-67
2022/12/08 01:10:17;;;;;;;29.83;24.00;;;3.70;99.90;;;;;;5056986;28;20439;-68
2022/12/08 01:12:44;;;;;;;31.63;23.90;;;3.70;99.90;;;;;;5056633;28;20895;-67
2022/12/08 01:15:12;;;;;;;29.40;23.83;;;3.70;99.90;;;;;;5056139;28;20495;-68
2022/12/08 01:17:40;;;;;;;29.60;21.60;;;3.70;99.90;;;;;;5056108;28;20910;-67
2022/12/08 01:20:08;;;;;;;27.50;22.07;;;3.70;99.90;;;;;;5056272;28;20501;-67
2022/12/08 01:22:35;;;;;;;28.30;21.50;;;3.70;99.90;;;;;;5056384;28;20470;-69
2022/12/08 01:25:03;;;;;;;39.03;22.60;;;3.60;99.90;;;;;;5056559;28;20494;-68
2022/12/08 01:27:30;;;;;;;29.97;21.97;;;3.60;99.90;;;;;;5056547;28;20472;-68
2022/12/08 01:29:57;;;;;;;29.30;22.43;;;3.60;99.90;;;;;;5056596;28;20469;-67
2022/12/08 01:32:26;;;;;;;33.17;21.70;;;3.60;99.90;;;;;;5056812;28;20492;-68
2022/12/08 01:34:53;;;;;;;28.60;21.47;;;3.60;99.90;;;;;;5055975;28;20462;-67
2022/12/08 01:37:20;;;;;;;25.00;21.23;;;3.60;99.90;;;;;;5056187;28;20458;-67
2022/12/08 01:39:47;;;;;;;26.70;21.73;;;3.60;99.90;;;;;;5059053;28;20486;-68
2022/12/08 01:42:21;;;;;;;28.80;22.30;;;3.70;99.90;;;;;;5060086;28;20466;-68
2022/12/08 01:44:57;;;;;;;27.20;20.93;;;3.60;99.90;;;;;;5060022;28;20470;-68
2022/12/08 01:47:31;;;;;;;26.20;22.30;;;3.60;99.90;;;;;;5060241;28;20469;-68
2022/12/08 01:49:58;;;;;;;24.20;19.17;;;3.60;99.90;;;;;;5060028;28;20437;-68
2022/12/08 01:52:32;;;;;;;23.70;18.60;;;3.70;99.90;;;;;;5059458;28;20907;-68
2022/12/08 01:55:03;;;;;;;24.80;18.90;;;3.60;99.90;;;;;;5059615;28;20466;-67
2022/12/08 01:57:36;;;;;;;19.60;16.60;;;3.60;99.90;;;;;;5059608;28;20473;-68
2022/12/08 02:00:07;;;;;;;23.70;17.43;;;3.60;99.90;;;;;;5059659;28;20490;-67
2022/12/08 02:02:44;;;;;;;21.93;17.43;;;3.60;99.90;;;;;;5059436;28;20458;-67
2022/12/08 02:05:11;;;;;;;18.53;16.10;;;3.60;99.90;;;;;;5058892;28;20922;-68
2022/12/08 02:07:39;;;;;;;21.10;17.37;;;3.60;99.90;;;;;;5059531;28;20580;-68
2022/12/08 02:10:08;;;;;;;20.80;18.20;;;3.60;99.90;;;;;;5059396;28;20432;-67
2022/12/08 02:12:35;;;;;;;22.60;17.83;;;3.60;99.90;;;;;;5059128;28;20437;-68
2022/12/08 02:15:02;;;;;;;23.17;18.53;;;3.60;99.90;;;;;;5059457;28;20474;-67
2022/12/08 02:17:44;;;;;;;25.10;18.40;;;3.60;99.90;;;;;;5059282;28;20565;-67
2022/12/08 02:20:27;;;;;;;27.37;19.07;;;3.60;99.90;;;;;;5059621;28;20497;-68
2022/12/08 02:23:03;;;;;;;26.10;21.30;;;3.60;99.90;;;;;;5059033;28;20563;-68
2022/12/08 02:25:40;;;;;;;31.13;21.57;;;3.60;99.90;;;;;;5059113;28;20568;-68
2022/12/08 02:28:42;;;;;;;29.40;21.60;;;3.60;99.90;;;;;;5059174;28;20887;-68
2022/12/08 02:31:19;;;;;;;30.73;23.07;;;3.60;99.90;;;;;;5058574;28;20472;-68
2022/12/08 02:34:15;;;;;;;30.10;22.47;;;3.50;99.90;;;;;;5059389;28;20441;-68
2022/12/08 02:36:54;;;;;;;30.33;21.87;;;3.50;99.90;;;;;;5059006;28;20487;-68
2022/12/08 02:39:29;;;;;;;31.47;23.27;;;3.50;99.90;;;;;;5058954;28;20889;-68
2022/12/08 02:42:04;;;;;;;33.20;24.37;;;3.50;99.90;;;;;;5059224;28;20462;-68
2022/12/08 02:44:37;;;;;;;29.50;22.50;;;3.50;99.90;;;;;;5058602;28;20535;-67
2022/12/08 02:47:08;;;;;;;33.83;22.93;;;3.50;99.90;;;;;;5058543;28;20473;-68
2022/12/08 02:49:37;;;;;;;32.83;24.63;;;3.60;99.90;;;;;;5058636;28;20876;-68
2022/12/08 02:52:28;;;;;;;31.50;22.87;;;3.50;99.90;;;;;;5059010;28;20921;-69
2022/12/08 02:55:00;;;;;;;29.47;22.27;;;3.50;99.90;;;;;;5058275;28;20441;-68
2022/12/08 02:57:40;;;;;;;33.97;23.60;;;3.50;99.90;;;;;;5058522;28;20462;-69
2022/12/08 03:00:11;;;;;;;34.30;20.87;;;3.50;99.90;;;;;;5058507;28;20468;-69
2022/12/08 03:02:59;;;;;;;35.57;26.23;;;3.50;99.90;;;;;;5058601;28;20467;-70
2022/12/08 03:05:45;;;;;;;31.03;22.00;;;3.40;99.90;;;;;;5058309;28;20535;-68
2022/12/08 03:08:17;;;;;;;30.93;22.60;;;3.50;99.90;;;;;;5057918;28;20466;-68
2022/12/08 03:10:52;;;;;;;32.53;23.00;;;3.50;99.90;;;;;;5058385;28;20914;-68
2022/12/08 03:13:25;;;;;;;29.57;23.50;;;3.50;99.90;;;;;;5058359;28;20436;-68
2022/12/08 03:15:54;;;;;;;29.63;20.90;;;3.40;99.90;;;;;;5058387;28;20903;-68
2022/12/08 03:18:26;;;;;;;33.03;21.90;;;3.50;99.90;;;;;;5058765;28;20465;-67
2022/12/08 03:20:54;;;;;;;31.90;23.40;;;3.50;99.90;;;;;;5057629;28;20494;-68
2022/12/08 03:23:22;;;;;;;32.37;23.67;;;3.50;99.90;;;;;;5058017;28;20941;-68
2022/12/08 03:25:57;;;;;;;31.53;22.07;;;3.50;99.90;;;;;;5057928;28;20494;-68
2022/12/08 03:28:25;;;;;;;32.43;22.27;;;3.50;99.90;;;;;;5058370;28;20458;-68
2022/12/08 03:30:56;;;;;;;32.53;24.00;;;3.60;99.90;;;;;;5057102;28;20433;-68
2022/12/08 03:33:26;;;;;;;29.47;21.27;;;3.60;99.90;;;;;;5057750;28;20437;-68
2022/12/08 03:35:54;;;;;;;27.23;20.07;;;3.60;99.90;;;;;;5058079;28;20915;-68
2022/12/08 03:38:22;;;;;;;24.70;18.50;;;3.50;99.90;;;;;;5058078;28;20467;-68
2022/12/08 03:43:32;;;;;;;24.40;17.13;;;3.50;99.90;;;;;;5056996;28;20445;-67
2022/12/08 03:45:59;;;;;;;23.80;17.53;;;3.40;99.90;;;;;;5057782;28;20462;-67
2022/12/08 03:48:26;;;;;;;27.03;17.87;;;3.50;99.90;;;;;;5057738;28;20462;-67
2022/12/08 03:50:53;;;;;;;22.30;17.30;;;3.40;99.90;;;;;;5057603;28;20492;-67
2022/12/08 03:53:20;;;;;;;26.03;17.60;;;3.50;99.90;;;;;;5057096;28;20437;-66
2022/12/08 03:55:47;;;;;;;26.90;18.50;;;3.50;99.90;;;;;;5057988;28;20436;-66
2022/12/08 03:58:16;;;;;;;28.43;18.10;;;3.50;99.90;;;;;;5057637;28;20465;-66
2022/12/08 04:00:43;;;;;;;23.53;18.00;;;3.50;99.90;;;;;;5057199;28;20498;-66
2022/12/08 04:03:10;;;;;;;22.97;17.30;;;3.50;99.90;;;;;;5056453;28;20467;-66
2022/12/08 04:05:37;;;;;;;26.13;18.77;;;3.50;99.90;;;;;;5057712;28;20489;-66
2022/12/08 04:08:05;;;;;;;28.90;19.33;;;3.50;99.90;;;;;;5056769;28;20484;-66
2022/12/08 04:10:32;;;;;;;30.97;21.93;;;3.50;99.90;;;;;;5057286;28;20433;-65
2022/12/08 04:12:59;;;;;;;29.63;21.47;;;3.50;99.90;;;;;;5057113;28;20464;-65
2022/12/08 04:15:27;;;;;;;31.70;21.37;;;3.50;99.90;;;;;;5057334;28;20758;-65
2022/12/08 04:17:55;;;;;;;31.60;22.63;;;3.50;99.90;;;;;;5057582;28;20444;-65
2022/12/08 04:20:22;;;;;;;25.93;19.40;;;3.50;99.90;;;;;;5056927;28;20490;-65
2022/12/08 04:22:49;;;;;;;29.27;20.97;;;3.50;99.90;;;;;;5056354;28;20462;-65
2022/12/08 04:25:16;;;;;;;23.77;17.87;;;3.40;99.90;;;;;;5055388;28;20513;-64
2022/12/08 04:27:43;;;;;;;23.20;16.20;;;3.40;99.90;;;;;;5056082;28;20710;-64
2022/12/08 04:30:11;;;;;;;24.03;16.10;;;3.50;99.90;;;;;;5055727;28;20737;-64
2022/12/08 04:32:40;;;;;;;25.37;16.83;;;3.40;99.90;;;;;;5055390;28;20473;-65
2022/12/08 04:35:07;;;;;;;25.53;17.03;;;3.40;99.90;;;;;;5055428;28;20462;-64
2022/12/08 04:37:35;;;;;;;22.60;17.33;;;3.40;99.90;;;;;;5055625;28;20527;-64
2022/12/08 04:40:02;;;;;;;23.30;17.03;;;3.40;99.90;;;;;;5056802;28;20573;-63
2022/12/08 04:42:29;;;;;;;21.20;16.20;;;3.40;99.90;;;;;;5056470;28;20504;-63
2022/12/08 04:44:56;;;;;;;18.97;14.83;;;3.40;99.90;;;;;;5056753;28;20437;-63
2022/12/08 04:47:26;;;;;;;22.63;15.63;;;3.40;99.90;;;;;;5056988;28;20441;-64
2022/12/08 04:49:54;;;;;;;19.60;16.43;;;3.40;99.90;;;;;;5057633;28;20458;-64
2022/12/08 04:52:22;;;;;;;21.40;15.87;;;3.40;99.90;;;;;;5057125;28;20461;-64
2022/12/08 04:54:49;;;;;;;23.50;15.30;;;3.40;99.90;;;;;;5056499;28;20441;-65
2022/12/08 04:57:16;;;;;;;21.70;16.00;;;3.40;99.90;;;;;;5056946;28;20444;-65
2022/12/08 04:59:43;;;;;;;23.47;15.03;;;3.40;99.90;;;;;;5057071;28;20958;-65
2022/12/08 05:02:12;;;;;;;23.07;15.90;;;3.40;99.90;;;;;;5057179;28;20464;-65
2022/12/08 05:04:39;;;;;;;20.37;14.60;;;3.40;99.90;;;;;;5056789;28;20806;-65
2022/12/08 05:07:07;;;;;;;23.43;15.37;;;3.40;99.90;;;;;;5056908;28;20733;-66
2022/12/08 05:09:35;;;;;;;22.00;15.63;;;3.40;99.90;;;;;;5056778;28;20437;-66
2022/12/08 05:12:02;;;;;;;23.40;16.80;;;3.40;99.90;;;;;;5056901;28;20962;-66
2022/12/08 05:14:29;;;;;;;17.83;14.00;;;3.40;99.90;;;;;;5060203;28;20468;-65
2022/12/08 05:16:56;;;;;;;16.90;15.00;;;3.40;99.90;;;;;;5060271;28;20462;-66
2022/12/08 05:19:23;;;;;;;17.67;13.10;;;3.40;99.90;;;;;;5060596;28;20462;-66
2022/12/08 05:21:50;;;;;;;17.10;12.87;;;3.40;99.90;;;;;;5060654;28;20757;-66
2022/12/08 05:24:19;;;;;;;18.33;14.17;;;3.40;99.90;;;;;;5060513;28;20490;-67
2022/12/08 05:26:46;;;;;;;17.73;12.77;;;3.40;99.90;;;;;;5060596;28;20440;-67
2022/12/08 05:29:13;;;;;;;16.87;12.50;;;3.30;99.90;;;;;;5060054;28;20737;-68
2022/12/08 05:31:41;;;;;;;17.23;12.70;;;3.30;99.90;;;;;;5059930;28;20587;-68
2022/12/08 05:34:08;;;;;;;17.13;12.93;;;3.30;99.90;;;;;;5060283;28;20754;-67
2022/12/08 05:36:35;;;;;;;15.70;12.97;;;3.30;99.90;;;;;;5059758;28;20437;-68
2022/12/08 05:39:02;;;;;;;17.27;11.80;;;3.30;99.90;;;;;;5060170;28;20747;-67
2022/12/08 05:41:31;;;;;;;20.40;12.60;;;3.30;99.90;;;;;;5059827;28;20500;-66
2022/12/08 05:43:58;;;;;;;13.13;11.10;;;3.30;99.90;;;;;;5060319;28;20698;-66
2022/12/08 05:46:25;;;;;;;11.40;9.93;;;3.30;99.90;;;;;;5059684;28;20465;-66
2022/12/08 05:48:52;;;;;;;14.37;10.20;;;3.30;99.90;;;;;;5051126;28;21845;-67
2022/12/08 05:51:21;;;;;;;13.30;10.37;;;3.20;99.90;;;;;;5048736;28;20435;-67
2022/12/08 05:53:49;;;;;;;15.30;11.40;;;3.30;99.90;;;;;;5046936;28;20456;-66
2022/12/08 05:56:17;;;;;;;13.67;10.30;;;3.30;99.90;;;;;;5047237;28;20469;-67
2022/12/08 05:58:45;;;;;;;12.47;10.63;;;3.20;99.90;;;;;;5047089;28;20434;-67
2022/12/08 06:01:20;;;;;;;15.33;11.17;;;3.30;99.90;;;;;;5047156;28;20868;-67
2022/12/08 06:03:47;;;;;;;17.10;12.20;;;3.20;99.90;;;;;;5046928;28;20781;-67
2022/12/08 06:06:14;;;;;;;16.53;12.80;;;3.20;99.90;;;;;;5048318;28;20459;-67
2022/12/08 06:08:42;;;;;;;18.13;14.00;;;3.30;99.90;;;;;;5048987;28;20511;-67
2022/12/08 06:11:09;;;;;;;15.80;12.47;;;3.30;99.90;;;;;;5046320;28;20455;-67
2022/12/08 06:13:36;;;;;;;20.03;15.03;;;3.30;99.90;;;;;;5054182;28;20467;-67
2022/12/08 06:16:06;;;;;;;23.93;16.77;;;3.30;99.90;;;;;;5055841;28;20462;-67
2022/12/08 06:18:34;;;;;;;26.13;20.00;;;3.40;99.90;;;;;;5047868;28;20465;-66
2022/12/08 06:21:11;;;;;;;20.93;16.63;;;3.40;99.90;;;;;;5047015;28;20781;-67
2022/12/08 06:23:39;;;;;;;22.77;16.60;;;3.40;99.90;;;;;;5042181;28;20459;-67
2022/12/08 06:26:07;;;;;;;28.47;18.60;;;3.50;99.90;;;;;;5057528;28;20442;-67
2022/12/08 06:28:35;;;;;;;24.57;18.90;;;3.50;99.90;;;;;;5057563;28;21025;-67
2022/12/08 06:31:09;;;;;;;24.17;18.03;;;3.40;99.90;;;;;;5056976;28;20459;-67
2022/12/08 06:33:37;;;;;;;22.27;17.30;;;3.50;99.90;;;;;;5058141;28;20436;-68
2022/12/08 06:36:04;;;;;;;27.67;17.93;;;3.40;99.90;;;;;;5058171;28;20458;-68
2022/12/08 06:38:31;;;;;;;27.07;18.57;;;3.40;99.90;;;;;;5057118;28;20437;-67
2022/12/08 06:40:59;;;;;;;24.90;18.73;;;3.60;99.90;;;;;;5058140;28;20447;-66
2022/12/08 06:43:27;;;;;;;26.00;18.77;;;3.60;99.90;;;;;;5059141;28;20883;-66
2022/12/08 06:45:54;;;;;;;26.90;19.13;;;3.50;99.90;;;;;;5059127;28;20474;-68
2022/12/08 06:48:23;;;;;;;26.83;19.47;;;3.50;99.90;;;;;;5058400;28;20458;-67
2022/12/08 06:50:50;;;;;;;27.40;17.13;;;3.60;99.90;;;;;;5058344;28;20466;-67
2022/12/08 06:53:18;;;;;;;24.23;17.43;;;3.50;99.90;;;;;;5058653;28;20816;-67
2022/12/08 06:55:46;;;;;;;23.70;17.10;;;3.40;99.90;;;;;;5058870;28;20462;-67
2022/12/08 06:58:14;;;;;;;25.93;18.73;;;3.40;99.90;;;;;;5059056;28;20443;-68
2022/12/08 07:00:42;;;;;;;27.00;17.57;;;3.50;99.90;;;;;;5058146;28;20469;-68
2022/12/08 07:03:10;;;;;;;22.87;18.10;;;3.40;99.90;;;;;;5058474;28;20493;-68
2022/12/08 07:05:40;;;;;;;27.00;17.67;;;3.40;99.90;;;;;;5058505;28;20443;-67
2022/12/08 07:08:08;;;;;;;25.53;17.20;;;3.40;99.90;;;;;;5058756;28;20933;-68
2022/12/08 07:10:35;;;;;;;25.07;18.40;;;3.40;99.90;;;;;;5058231;28;20548;-68
2022/12/08 07:13:03;;;;;;;23.83;17.63;;;3.40;99.90;;;;;;5058151;28;20462;-67
2022/12/08 07:15:30;;;;;;;25.13;18.87;;;3.40;99.90;;;;;;5058357;28;20462;-67
2022/12/08 07:17:57;;;;;;;28.20;19.20;;;3.40;99.90;;;;;;5058439;28;20792;-67
2022/12/08 07:20:24;;;;;;;27.20;19.93;;;3.40;99.90;;;;;;5058279;28;20454;-67
2022/12/08 07:22:53;;;;;;;25.30;18.37;;;3.40;99.90;;;;;;5057050;28;20490;-67
2022/12/08 07:25:21;;;;;;;25.47;18.27;;;3.40;99.90;;;;;;5058226;28;20494;-67
2022/12/08 07:27:50;;;;;;;24.80;16.87;;;3.30;99.90;;;;;;5058784;28;20458;-67
2022/12/08 07:30:17;;;;;;;24.27;17.70;;;3.20;99.90;;;;;;5058595;28;20500;-67
2022/12/08 07:32:44;;;;;;;24.13;16.40;;;3.20;99.90;;;;;;5057878;28;20458;-67
2022/12/08 07:35:11;;;;;;;21.40;16.27;;;3.10;99.90;;;;;;5058161;28;20437;-67
2022/12/08 07:37:39;;;;;;;22.60;17.60;;;3.10;99.90;;;;;;5057217;28;20448;-67
2022/12/08 07:40:09;;;;;;;22.50;17.37;;;3.20;99.90;;;;;;5058219;28;20460;-67
2022/12/08 07:42:36;;;;;;;24.20;16.77;;;3.10;99.90;;;;;;5057005;28;20501;-68
2022/12/08 07:45:04;;;;;;;23.33;17.10;;;3.10;99.90;;;;;;5057987;28;20470;-68
2022/12/08 07:47:31;;;;;;;19.03;14.00;;;3.00;99.90;;;;;;5057989;28;20888;-68
2022/12/08 07:49:58;;;;;;;19.97;14.53;;;3.10;99.90;;;;;;5057937;28;20441;-68
2022/12/08 07:52:25;;;;;;;20.13;16.37;;;3.10;99.90;;;;;;5057782;28;20470;-68
2022/12/08 07:54:52;;;;;;;19.80;15.70;;;3.10;99.90;;;;;;5057547;28;20462;-69
2022/12/08 07:57:21;;;;;;;20.63;15.53;;;3.10;99.90;;;;;;5057621;28;20887;-70
2022/12/08 07:59:48;;;;;;;22.33;16.43;;;3.10;99.90;;;;;;5057793;28;20469;-69
2022/12/08 08:02:19;;;;;;;21.73;16.43;;;3.10;99.90;;;;;;5057665;28;20516;-69
2022/12/08 08:04:50;;;;;;;20.80;15.03;;;3.20;99.90;;;;;;5057871;28;20466;-68
2022/12/08 08:07:17;;;;;;;19.60;15.23;;;3.10;99.90;;;;;;5057776;28;20470;-67
2022/12/08 08:09:44;;;;;;;24.47;16.73;;;3.10;99.90;;;;;;5057749;28;20473;-68
2022/12/08 08:12:11;;;;;;;20.93;16.63;;;3.10;99.90;;;;;;5057916;28;20441;-68
2022/12/08 08:14:40;;;;;;;21.23;16.03;;;3.10;99.90;;;;;;5057208;28;20469;-69
2022/12/08 08:17:07;;;;;;;23.70;17.90;;;3.10;99.90;;;;;;5057383;28;20469;-68
2022/12/08 08:19:34;;;;;;;21.83;17.10;;;3.20;99.90;;;;;;5057004;28;20465;-69
2022/12/08 08:22:01;;;;;;;20.47;17.30;;;3.20;99.90;;;;;;5056804;28;20471;-68
2022/12/08 08:24:28;;;;;;;19.47;15.60;;;3.10;99.90;;;;;;5055287;28;20461;-67
2022/12/08 08:26:56;;;;;;;21.50;16.57;;;3.10;99.90;;;;;;5055327;28;20458;-68
2022/12/08 08:29:23;;;;;;;21.87;14.93;;;3.10;99.90;;;;;;5054549;28;20473;-67
2022/12/08 08:31:51;;;;;;;19.87;16.67;;;3.10;99.90;;;;;;5055443;28;20498;-67
2022/12/08 08:34:18;;;;;;;18.73;13.77;;;3.00;99.90;;;;;;5055735;28;20462;-68
2022/12/08 08:36:46;;;;;;;18.97;13.80;;;3.00;99.90;;;;;;5055365;28;20728;-67
2022/12/08 08:39:13;;;;;;;18.03;14.50;;;3.00;99.90;;;;;;5055986;28;20808;-67
2022/12/08 08:41:40;;;;;;;16.77;12.90;;;3.10;99.90;;;;;;5055392;28;20588;-67
2022/12/08 08:44:07;;;;;;;17.03;13.90;;;3.00;99.90;;;;;;5055328;28;20448;-67
2022/12/08 08:46:35;;;;;;;20.20;14.30;;;2.90;99.90;;;;;;5055428;28;20862;-67
2022/12/08 08:49:03;;;;;;;17.30;14.13;;;2.90;99.90;;;;;;5058756;28;20523;-67
2022/12/08 08:51:30;;;;;;;17.33;14.70;;;3.00;99.90;;;;;;5059568;28;20519;-67
2022/12/08 08:53:58;;;;;;;19.60;14.00;;;3.00;99.90;;;;;;5059897;28;20732;-68
2022/12/08 08:56:25;;;;;;;19.57;14.40;;;3.00;99.90;;;;;;5060887;28;20465;-69
2022/12/08 08:58:53;;;;;;;17.07;13.73;;;3.00;99.90;;;;;;5060674;28;20466;-68
2022/12/08 09:01:24;;;;;;;16.83;13.80;;;3.00;99.90;;;;;;5060569;28;20437;-68
2022/12/08 09:03:51;;;;;;;16.60;14.10;;;3.00;99.90;;;;;;5061112;28;20490;-68
2022/12/08 09:06:20;;;;;;;17.97;14.40;;;3.00;99.90;;;;;;5060396;28;20466;-67
2022/12/08 09:08:48;;;;;;;16.80;14.10;;;3.00;99.90;;;;;;5060594;28;20473;-67
2022/12/08 09:11:17;;;;;;;17.50;13.43;;;2.90;99.90;;;;;;5060959;28;20468;-67
2022/12/08 09:13:44;;;;;;;15.50;12.47;;;2.80;99.90;;;;;;5060635;28;20433;-67
2022/12/08 09:16:12;;;;;;;15.17;12.73;;;2.80;99.90;;;;;;5060807;28;20937;-66
2022/12/08 09:18:39;;;;;;;14.97;12.87;;;2.80;99.90;;;;;;5060369;28;20444;-67
2022/12/08 09:21:08;;;;;;;14.30;11.53;;;2.80;99.90;;;;;;5060166;28;20462;-67
2022/12/08 09:23:37;;;;;;;16.27;12.70;;;2.80;99.90;;;;;;5059775;28;20490;-67
2022/12/08 09:26:04;;;;;;;15.07;12.23;;;2.80;99.90;;;;;;5060867;28;20895;-67
2022/12/08 09:28:32;;;;;;;17.63;13.40;;;2.90;99.90;;;;;;5060067;28;20531;-67
2022/12/08 09:30:59;;;;;;;15.07;12.10;;;2.80;99.90;;;;;;5060046;28;20560;-67
2022/12/08 09:33:26;;;;;;;15.77;14.00;;;2.80;99.90;;;;;;5060536;28;20437;-67
2022/12/08 09:35:53;;;;;;;14.90;13.30;;;2.70;99.90;;;;;;5060304;28;20458;-67
2022/12/08 09:38:21;;;;;;;18.20;16.40;;;2.80;99.90;;;;;;5059849;28;20441;-67
2022/12/08 09:40:52;;;;;;;18.27;16.37;;;2.80;99.90;;;;;;5059099;28;20944;-67
2022/12/08 09:43:35;;;;;;;18.83;16.80;;;2.80;99.90;;;;;;5058522;28;20682;-66
2022/12/08 09:46:07;;;;;;;19.63;16.40;;;2.70;99.90;;;;;;5058532;28;20468;-67
2022/12/08 09:48:38;;;;;;;21.80;15.80;;;2.70;99.90;;;;;;5057991;28;20472;-67
2022/12/08 09:51:05;;;;;;;15.50;13.40;;;2.70;99.90;;;;;;5058013;28;20477;-67
2022/12/08 09:53:36;;;;;;;20.20;18.10;;;2.60;99.90;;;;;;5058385;28;20481;-67
2022/12/08 09:56:13;;;;;;;20.27;18.10;;;2.60;99.90;;;;;;5058556;28;20609;-67
2022/12/08 09:58:49;;;;;;;20.33;14.97;;;2.70;99.90;;;;;;5057465;28;20716;-67
2022/12/08 10:01:17;;;;;;;14.73;12.47;;;2.60;99.90;;;;;;5057935;28;20444;-68
2022/12/08 10:03:45;;;;;;;19.40;14.87;;;2.70;99.90;;;;;;5059743;28;20533;-67
2022/12/08 10:06:21;;;;;;;20.43;15.30;;;2.70;99.90;;;;;;5060007;28;20470;-67
2022/12/08 10:08:58;;;;;;;18.47;14.03;;;2.70;99.90;;;;;;5059510;28;20440;-68
2022/12/08 10:11:36;;;;;;;19.53;14.83;;;2.70;99.90;;;;;;5059330;28;20504;-68
2022/12/08 10:14:18;;;;;;;20.43;15.77;;;2.80;99.90;;;;;;5059854;28;20531;-68
2022/12/08 10:16:49;;;;;;;17.77;14.83;;;2.80;99.90;;;;;;5059359;28;20462;-68
2022/12/08 10:19:23;;;;;;;18.87;14.37;;;2.80;99.90;;;;;;5059481;28;20902;-67
2022/12/08 10:21:51;;;;;;;22.83;15.90;;;2.80;99.90;;;;;;5059377;28;20497;-67
2022/12/08 10:24:24;;;;;;;22.30;16.80;;;2.90;99.90;;;;;;5059458;28;20489;-67
2022/12/08 10:26:54;;;;;;;22.60;18.30;;;2.90;99.90;;;;;;5057512;28;20470;-68
2022/12/08 10:29:21;;;;;;;24.90;17.40;;;3.00;99.90;;;;;;5058625;28;20469;-67
2022/12/08 10:31:48;;;;;;;23.03;16.27;;;3.00;99.90;;;;;;5059305;28;20441;-67
2022/12/08 10:34:18;;;;;;;25.80;19.27;;;3.10;99.90;;;;;;5059496;28;20498;-67
2022/12/08 10:36:48;;;;;;;27.30;17.20;;;3.10;99.90;;;;;;5058341;28;20474;-68
2022/12/08 10:39:33;;;;;;;23.43;17.60;;;3.10;99.90;;;;;;5058880;28;20467;-68
2022/12/08 10:42:07;;;;;;;27.30;21.10;;;3.10;99.90;;;;;;5059241;28;20437;-67
2022/12/08 10:44:47;;;;;;;33.43;28.00;;;3.10;99.90;;;;;;5059250;28;20500;-68
2022/12/08 10:47:15;;;;;;;45.57;37.20;;;3.10;99.90;;;;;;5059295;28;20472;-69
2022/12/08 10:49:42;;;;;;;33.37;25.57;;;3.10;99.90;;;;;;5059233;28;20494;-69
2022/12/08 10:52:21;;;;;;;35.00;29.53;;;3.20;99.90;;;;;;5049386;28;20463;-70
2022/12/08 10:54:53;;;;;;;35.30;26.53;;;3.20;99.90;;;;;;5038963;28;20466;-69
2022/12/08 10:57:24;;;;;;;28.60;22.87;;;3.30;99.90;;;;;;5039141;28;20804;-69
2022/12/08 10:59:55;;;;;;;31.17;26.23;;;3.10;99.90;;;;;;5038654;28;20471;-69
2022/12/08 11:02:23;;;;;;;27.20;20.80;;;3.10;99.90;;;;;;5039141;28;20433;-67
2022/12/08 11:04:59;;;;;;;28.80;21.77;;;3.10;99.90;;;;;;5038421;28;20445;-67
2022/12/08 11:07:27;;;;;;;27.90;22.10;;;3.10;99.90;;;;;;5038768;28;20567;-67
2022/12/08 11:09:57;;;;;;;26.40;19.73;;;3.10;99.90;;;;;;5038572;28;20566;-67
2022/12/08 11:12:29;;;;;;;21.00;17.60;;;3.10;99.90;;;;;;5038074;28;20470;-67
2022/12/08 11:15:02;;;;;;;22.27;17.17;;;3.10;99.90;;;;;;5038566;28;20496;-67
2022/12/08 11:17:38;;;;;;;27.60;19.63;;;3.00;99.90;;;;;;5038301;28;20467;-68
2022/12/08 11:20:22;;;;;;;22.00;17.10;;;3.00;99.90;;;;;;5038784;28;20436;-68
2022/12/08 11:22:53;;;;;;;28.77;18.37;;;3.10;99.90;;;;;;5038484;28;20469;-69
2022/12/08 11:25:23;;;;;;;20.90;16.73;;;3.10;99.90;;;;;;5052568;28;20961;-69
2022/12/08 11:27:54;;;;;;;28.03;20.30;;;3.10;99.90;;;;;;5058458;28;20524;-68
2022/12/08 11:30:23;;;;;;;28.70;20.73;;;3.20;99.90;;;;;;5057531;28;20458;-68
2022/12/08 11:32:55;;;;;;;22.17;17.20;;;3.30;99.90;;;;;;5057917;28;20883;-68
2022/12/08 11:35:27;;;;;;;24.40;17.67;;;3.40;99.90;;;;;;5058213;28;20437;-66
2022/12/08 11:37:58;;;;;;;23.10;18.43;;;3.50;99.90;;;;;;5058320;28;20908;-66
2022/12/08 11:40:38;;;;;;;27.87;21.97;;;3.60;99.90;;;;;;5057637;28;20774;-67
2022/12/08 11:43:16;;;;;;;21.73;17.07;;;3.60;99.90;;;;;;5057612;28;20490;-67
2022/12/08 11:45:43;;;;;;;26.40;17.87;;;3.70;99.90;;;;;;5057741;28;20466;-68
2022/12/08 11:48:16;;;;;;;24.90;17.77;;;3.70;99.90;;;;;;5057029;28;20826;-67
2022/12/08 11:50:49;;;;;;;23.83;17.27;;;3.70;99.90;;;;;;5057480;28;20899;-68
2022/12/08 11:53:27;;;;;;;23.97;17.50;;;3.80;99.90;;;;;;5057963;28;20502;-68
2022/12/08 11:55:58;;;;;;;16.87;13.80;;;3.80;99.90;;;;;;5057083;28;20463;-66
2022/12/08 11:58:34;;;;;;;20.03;15.17;;;3.90;99.90;;;;;;5057081;28;20458;-67
2022/12/08 12:01:02;;;;;;;22.20;15.13;;;3.80;99.90;;;;;;5057797;28;20461;-66
2022/12/08 12:03:35;;;;;;;18.93;15.33;;;3.80;99.90;;;;;;5057415;28;20464;-66
2022/12/08 12:06:24;;;;;;;20.73;15.23;;;3.80;99.90;;;;;;5055828;28;20458;-66
2022/12/08 12:09:02;;;;;;;19.37;15.30;;;3.60;99.90;;;;;;5054952;28;20459;-69
2022/12/08 12:14:44;;;;;;;19.33;14.40;;;3.60;99.90;;;;;;5055674;28;20921;-67
2022/12/08 12:17:30;;;;;;;21.50;15.20;;;3.50;99.90;;;;;;5056078;28;20467;-68
2022/12/08 12:20:02;;;;;;;20.03;17.00;;;3.40;99.90;;;;;;5055915;28;20886;-68
2022/12/08 12:22:34;;;;;;;21.93;17.87;;;3.40;99.90;;;;;;5054803;28;20738;-68
2022/12/08 12:25:03;;;;;;;30.17;18.33;;;3.50;99.90;;;;;;5054405;28;20567;-68
2022/12/08 12:27:37;;;;;;;24.53;18.67;;;3.60;99.90;;;;;;5054465;28;20439;-68
2022/12/08 12:30:09;;;;;;;23.90;16.90;;;3.60;99.90;;;;;;5052720;28;20890;-69
2022/12/08 12:32:47;;;;;;;26.07;17.40;;;3.60;99.90;;;;;;5054314;28;20471;-70
2022/12/08 12:35:20;;;;;;;18.80;16.10;;;3.60;99.90;;;;;;5054795;28;20461;-67
2022/12/08 12:37:49;;;;;;;18.90;15.60;;;3.50;99.90;;;;;;5061858;28;20463;-67
2022/12/08 12:40:20;;;;;;;21.53;14.97;;;3.50;99.90;;;;;;5073590;28;20461;-67
2022/12/08 12:43:08;;;;;;;20.47;15.50;;;3.40;99.90;;;;;;5075836;28;20890;-67
2022/12/08 12:45:42;;;;;;;21.80;14.73;;;3.30;99.90;;;;;;5075198;28;20490;-69
2022/12/08 12:48:26;;;;;;;19.43;14.10;;;3.20;99.90;;;;;;5075627;28;20526;-70
2022/12/08 12:50:55;;;;;;;20.20;15.17;;;3.20;99.90;;;;;;5075649;28;20469;-69
2022/12/08 12:53:49;;;;;;;19.83;14.53;;;3.30;99.90;;;;;;5075367;28;20436;-69
2022/12/08 12:56:45;;;;;;;17.60;14.03;;;3.40;99.90;;;;;;5074529;28;20532;-69
2022/12/08 12:59:41;;;;;;;19.70;14.80;;;3.50;99.90;;;;;;5074729;28;20747;-69
2022/12/08 13:02:21;;;;;;;20.90;14.30;;;3.50;99.90;;;;;;5075944;28;20906;-69